Time;durP1;ratioP1;P1;durP2;ratioP2;P2;SDS_P1;SDS_P2;PMS_P1;PMS_P2;Temp;Humidity;BMP_temperature;BMP_pressure;BME280_temperature;BME280_humidity;BME280_pressure;Samples;Min_cycle;Max_cycle;Signal;HPM_P1;HPM_P2
2022/07/31 00:00:39;;;;;;;3.45;1.60;;;;;;;;;;5006997;28;20034;-75
2022/07/31 00:03:06;;;;;;;4.53;1.40;;;;;;;;;;5007755;28;20031;-75
2022/07/31 00:05:32;;;;;;;5.03;1.60;;;;;;;;;;4999236;28;20382;-76
2022/07/31 00:07:58;;;;;;;3.50;1.42;;;;;;;;;;5009979;28;20447;-75
2022/07/31 00:10:24;;;;;;;4.35;2.05;;;19.20;99.90;;;;;;5004019;28;20045;-75
2022/07/31 00:12:50;;;;;;;3.45;1.60;;;;;;;;;;5003453;28;20037;-75
2022/07/31 00:15:17;;;;;;;3.33;1.40;;;;;;;;;;5005122;28;20092;-77
2022/07/31 00:17:43;;;;;;;5.70;1.42;;;;;;;;;;4997509;28;20018;-75
2022/07/31 00:20:14;;;;;;;4.00;1.63;;;;;;;;;;5011269;28;20038;-75
2022/07/31 00:22:41;;;;;;;3.20;1.33;;;;;;;;;;5006194;28;20037;-74
2022/07/31 00:25:07;;;;;;;4.22;1.17;;;;;;;;;;5007339;28;20576;-74
2022/07/31 00:27:33;;;;;;;3.17;1.10;;;;;;;;;;5009586;28;20580;-75
2022/07/31 00:29:59;;;;;;;5.07;1.40;;;;;;;;;;5011359;28;20117;-75
2022/07/31 00:32:25;;;;;;;4.40;1.63;;;;;;;;;;5001580;28;20105;-75
2022/07/31 00:34:52;;;;;;;6.22;1.60;;;;;;;;;;5008518;28;20381;-75
2022/07/31 00:37:18;;;;;;;4.03;1.60;;;;;;;;;;5008085;28;20038;-75
2022/07/31 00:39:44;;;;;;;3.67;1.92;;;;;;;;;;5008692;28;20046;-75
2022/07/31 00:42:20;;;;;;;4.93;1.55;;;19.40;99.90;;;;;;5006408;28;20062;-74
2022/07/31 00:44:46;;;;;;;2.83;1.38;;;;;;;;;;5003754;28;20034;-74
2022/07/31 00:47:12;;;;;;;1.83;1.45;;;19.30;99.90;;;;;;5002158;28;20466;-76
2022/07/31 00:49:38;;;;;;;4.68;2.38;;;;;;;;;;5005460;28;20038;-75
2022/07/31 00:52:05;;;;;;;4.32;1.30;;;;;;;;;;5006031;28;20034;-76
2022/07/31 00:54:31;;;;;;;4.20;1.65;;;;;;;;;;5006062;28;20050;-77
2022/07/31 00:56:57;;;;;;;6.40;1.83;;;;;;;;;;5005881;28;20030;-76
2022/07/31 00:59:23;;;;;;;5.57;1.80;;;;;;;;;;5006805;28;20061;-76
2022/07/31 01:01:49;;;;;;;5.10;1.80;;;;;;;;;;5011006;28;20379;-77
2022/07/31 01:04:17;;;;;;;8.45;2.40;;;;;;;;;;4998331;28;20033;-76
2022/07/31 01:06:43;;;;;;;2.38;1.70;;;;;;;;;;5008297;28;20026;-79
2022/07/31 01:09:09;;;;;;;6.28;2.20;;;;;;;;;;5007842;28;20033;-76
2022/07/31 01:11:44;;;;;;;5.78;2.35;;;;;;;;;;5007471;28;20488;-78
2022/07/31 01:14:10;;;;;;;3.80;2.00;;;;;;;;;;5002338;28;20038;-76
2022/07/31 01:16:49;;;;;;;5.47;2.35;;;;;;;;;;4998297;28;20042;-76
2022/07/31 01:19:18;;;;;;;4.32;1.60;;;;;;;;;;5003179;28;20382;-76
2022/07/31 01:22:10;;;;;;;9.95;2.10;;;;;;;;;;5008163;28;20079;-79
2022/07/31 01:24:50;;;;;;;3.63;1.80;;;19.30;99.90;;;;;;4989441;28;20555;-75
2022/07/31 01:27:39;;;;;;;4.82;1.75;;;;;;;;;;5001591;28;20048;-75
2022/07/31 01:30:05;;;;;;;6.68;2.10;;;;;;;;;;5006673;28;20081;-76
2022/07/31 01:32:34;;;;;;;4.70;1.77;;;;;;;;;;5007652;28;20120;-75
2022/07/31 01:35:03;;;;;;;17.77;10.43;;;;;;;;;;5012672;28;20032;-76
2022/07/31 01:37:51;;;;;;;5.13;2.85;;;;;;;;;;5005906;28;20026;-75
2022/07/31 01:40:24;;;;;;;5.70;1.92;;;;;;;;;;5012010;28;20165;-73
2022/07/31 01:42:51;;;;;;;6.32;2.10;;;;;;;;;;5006796;28;20041;-74
2022/07/31 01:45:19;;;;;;;5.60;2.42;;;;;;;;;;5009635;28;20112;-74
2022/07/31 01:47:47;;;;;;;6.15;2.25;;;19.00;99.90;;;;;;4999662;28;20030;-74
2022/07/31 01:50:13;;;;;;;6.90;2.00;;;;;;;;;;5013427;28;20367;-78
2022/07/31 01:52:40;;;;;;;5.72;2.67;;;;;;;;;;5009954;28;20076;-74
2022/07/31 01:55:07;;;;;;;6.90;2.15;;;;;;;;;;5011557;28;20964;-76
2022/07/31 01:57:33;;;;;;;6.20;2.33;;;;;;;;;;5009157;28;20117;-77
2022/07/31 02:00:01;;;;;;;8.68;2.45;;;;;;;;;;5011475;28;20389;-75
2022/07/31 02:02:28;;;;;;;4.57;2.40;;;;;;;;;;4996387;28;20026;-77
2022/07/31 02:04:55;;;;;;;5.35;2.20;;;;;;;;;;5010399;28;20497;-78
2022/07/31 02:07:22;;;;;;;5.55;2.67;;;;;;;;;;5008397;28;20088;-76
2022/07/31 02:09:49;;;;;;;3.83;2.95;;;;;;;;;;5013046;28;20044;-78
2022/07/31 02:12:16;;;;;;;6.63;2.50;;;;;;;;;;5009268;28;20493;-75
2022/07/31 02:14:42;;;;;;;6.60;2.42;;;;;;;;;;5007373;28;20030;-76
2022/07/31 02:17:10;;;;;;;3.28;2.38;;;19.00;99.90;;;;;;5010430;28;20190;-76
2022/07/31 02:19:38;;;;;;;4.53;2.22;;;;;;;;;;5006857;28;20029;-74
2022/07/31 02:22:05;;;;;;;5.65;2.15;;;;;;;;;;5010265;28;20026;-73
2022/07/31 02:24:31;;;;;;;3.38;2.53;;;;;;;;;;5010839;28;20040;-73
2022/07/31 02:26:58;;;;;;;5.35;2.15;;;;;;;;;;5010616;28;20046;-74
2022/07/31 02:29:24;;;;;;;8.13;2.60;;;;;;;;;;5010052;28;20046;-74
2022/07/31 02:31:54;;;;;;;5.75;2.28;;;;;;;;;;5000696;28;20030;-74
2022/07/31 02:34:21;;;;;;;4.57;2.55;;;;;;;;;;5009758;28;20120;-75
2022/07/31 02:36:47;;;;;;;4.03;2.40;;;;;;;;;;5008619;28;20478;-74
2022/07/31 02:39:14;;;;;;;6.32;2.60;;;;;;;;;;5009839;28;20583;-73
2022/07/31 02:41:40;;;;;;;5.80;3.00;;;;;;;;;;4993041;28;20038;-73
2022/07/31 02:44:07;;;;;;;4.47;2.42;;;;;;;;;;5025309;28;20389;-73
2022/07/31 02:46:34;;;;;;;5.10;2.40;;;;;;;;;;5011696;28;20033;-74
2022/07/31 02:49:00;;;;;;;8.15;2.50;;;;;;;;;;5008658;28;20034;-74
2022/07/31 02:51:27;;;;;;;3.58;2.00;;;;;;;;;;5006715;28;20044;-74
2022/07/31 02:53:54;;;;;;;5.25;2.90;;;;;;;;;;5010814;28;20452;-74
2022/07/31 02:56:21;;;;;;;9.25;3.17;;;;;;;;;;5009564;28;20034;-74
2022/07/31 02:58:47;;;;;;;3.00;1.98;;;;;;;;;;5007544;28;20493;-75
2022/07/31 03:01:13;;;;;;;6.55;2.42;;;;;;;;;;5000497;28;20073;-75
2022/07/31 03:03:39;;;;;;;4.72;2.97;;;;;;;;;;4997850;28;20057;-74
2022/07/31 03:06:06;;;;;;;8.05;2.80;;;;;;;;;;5006699;28;20124;-74
2022/07/31 03:08:31;;;;;;;4.65;2.13;;;;;;;;;;5008413;28;20509;-75
2022/07/31 03:10:58;;;;;;;3.65;2.08;;;;;;;;;;5009080;28;20191;-74
2022/07/31 03:13:27;;;;;;;3.88;2.40;;;18.80;99.90;;;;;;5009883;28;20030;-74
2022/07/31 03:15:54;;;;;;;5.63;2.40;;;;;;;;;;5002557;28;20510;-75
2022/07/31 03:18:20;;;;;;;4.10;1.92;;;;;;;;;;5011540;28;20041;-74
2022/07/31 03:20:50;;;;;;;10.05;2.83;;;;;;;;;;5009474;28;20168;-74
2022/07/31 03:23:18;;;;;;;5.45;2.72;;;18.50;99.90;;;;;;5010516;28;20033;-74
2022/07/31 03:25:44;;;;;;;10.40;2.65;;;;;;;;;;5008946;28;20037;-74
2022/07/31 03:28:10;;;;;;;3.25;2.30;;;;;;;;;;5010262;28;20045;-74
2022/07/31 03:30:36;;;;;;;3.13;2.00;;;18.70;99.90;;;;;;5009545;28;20095;-74
2022/07/31 03:33:02;;;;;;;7.38;2.90;;;;;;;;;;5011193;28;20085;-74
2022/07/31 03:35:28;;;;;;;4.47;2.63;;;;;;;;;;5000387;28;20077;-74
2022/07/31 03:37:55;;;;;;;12.52;2.83;;;;;;;;;;5007027;28;20041;-74
2022/07/31 03:40:21;;;;;;;6.13;2.72;;;;;;;;;;5004016;28;20031;-74
2022/07/31 03:42:48;;;;;;;3.83;2.38;;;;;;;;;;4995593;28;20083;-74
2022/07/31 03:45:15;;;;;;;6.00;3.25;;;18.40;99.90;;;;;;5008084;28;20125;-74
2022/07/31 03:47:41;;;;;;;9.82;2.70;;;;;;;;;;4997436;28;20627;-74
2022/07/31 03:50:08;;;;;;;5.93;2.47;;;;;;;;;;5008860;28;20042;-74
2022/07/31 03:52:35;;;;;;;5.38;2.55;;;;;;;;;;5012048;28;20048;-74
2022/07/31 03:55:01;;;;;;;3.13;2.28;;;;;;;;;;5008027;28;20038;-74
2022/07/31 03:57:28;;;;;;;4.72;2.75;;;;;;;;;;5006121;28;20038;-74
2022/07/31 03:59:56;;;;;;;5.05;2.65;;;;;;;;;;5006081;28;20060;-75
2022/07/31 04:02:24;;;;;;;4.38;2.60;;;18.80;99.90;;;;;;5006385;28;20034;-75
2022/07/31 04:04:50;;;;;;;5.18;2.60;;;;;;;;;;5008794;28;20732;-75
2022/07/31 04:07:16;;;;;;;4.30;2.15;;;;;;;;;;5008411;28;20030;-75
2022/07/31 04:09:42;;;;;;;7.47;3.25;;;;;;;;;;5010061;28;20030;-75
2022/07/31 04:12:08;;;;;;;4.25;2.55;;;;;;;;;;5004359;28;20165;-75
2022/07/31 04:14:35;;;;;;;5.82;2.55;;;;;;;;;;5005817;28;20041;-75
2022/07/31 04:17:01;;;;;;;8.10;3.42;;;;;;;;;;5005797;28;20415;-75
2022/07/31 04:19:29;;;;;;;9.38;3.42;;;;;;;;;;5011004;28;20092;-75
2022/07/31 04:21:56;;;;;;;7.22;3.10;;;;;;;;;;5003842;28;20742;-75
2022/07/31 04:24:22;;;;;;;6.63;2.67;;;;;;;;;;5001855;28;20030;-74
2022/07/31 04:26:49;;;;;;;9.70;4.15;;;;;;;;;;5023920;28;20445;-75
2022/07/31 04:29:15;;;;;;;5.05;3.00;;;18.50;99.90;;;;;;5010701;28;20367;-75
2022/07/31 04:31:41;;;;;;;8.07;2.83;;;;;;;;;;5004265;28;20096;-75
2022/07/31 04:34:07;;;;;;;8.85;2.88;;;;;;;;;;5011092;28;20057;-75
2022/07/31 04:36:33;;;;;;;3.97;2.90;;;;;;;;;;5008453;28;20068;-75
2022/07/31 04:38:59;;;;;;;6.00;3.20;;;;;;;;;;5001816;28;20118;-75
2022/07/31 04:41:25;;;;;;;4.32;2.40;;;;;;;;;;5006786;28;20030;-76
2022/07/31 04:43:51;;;;;;;6.35;2.70;;;;;;;;;;5001971;28;20089;-75
2022/07/31 04:46:18;;;;;;;7.55;2.80;;;;;;;;;;5008304;28;20088;-74
2022/07/31 04:48:44;;;;;;;4.25;2.75;;;;;;;;;;5004746;28;20492;-74
2022/07/31 04:51:16;;;;;;;6.40;3.17;;;;;;;;;;5007768;28;20034;-75
2022/07/31 04:53:42;;;;;;;7.90;3.38;;;;;;;;;;4998210;28;20022;-75
2022/07/31 04:58:53;;;;;;;10.00;3.20;;;;;;;;;;5012323;28;20405;-75
2022/07/31 05:01:19;;;;;;;10.00;3.72;;;;;;;;;;5011021;28;20034;-75
2022/07/31 05:03:45;;;;;;;7.60;3.20;;;;;;;;;;5011582;28;20038;-76
2022/07/31 05:06:11;;;;;;;4.40;2.78;;;19.10;99.90;;;;;;5008320;28;20034;-75
2022/07/31 05:08:38;;;;;;;4.97;2.88;;;;;;;;;;5011094;28;20068;-76
2022/07/31 05:11:23;;;;;;;5.00;2.65;;;19.00;99.90;;;;;;5001035;28;20045;-77
2022/07/31 05:13:50;;;;;;;6.18;2.78;;;;;;;;;;5005617;28;20030;-76
2022/07/31 05:16:17;;;;;;;3.88;3.22;;;18.80;99.90;;;;;;5012024;28;20053;-74
2022/07/31 05:18:46;;;;;;;6.32;3.10;;;;;;;;;;5014453;28;20172;-75
2022/07/31 05:21:13;;;;;;;7.47;3.00;;;;;;;;;;5013428;28;20034;-75
2022/07/31 05:23:43;;;;;;;11.75;3.53;;;;;;;;;;5010991;28;20037;-75
2022/07/31 05:26:09;;;;;;;7.22;3.65;;;;;;;;;;5011373;28;20030;-74
2022/07/31 05:28:36;;;;;;;9.20;3.47;;;;;;;;;;5004983;28;20045;-75
2022/07/31 05:31:02;;;;;;;4.95;3.20;;;;;;;;;;5011918;28;20585;-76
2022/07/31 05:33:28;;;;;;;7.60;3.88;;;;;;;;;;5012097;28;20413;-77
2022/07/31 05:35:55;;;;;;;6.50;3.17;;;;;;;;;;5000746;28;20098;-76
2022/07/31 05:38:21;;;;;;;7.35;2.60;;;;;;;;;;5012548;28;20030;-76
2022/07/31 05:40:47;;;;;;;6.60;2.92;;;;;;;;;;5010323;28;20034;-76
2022/07/31 05:43:13;;;;;;;5.32;3.50;;;;;;;;;;5008925;28;20046;-76
2022/07/31 05:45:39;;;;;;;6.97;3.42;;;;;;;;;;5006110;28;20081;-77
2022/07/31 05:48:05;;;;;;;4.95;3.33;;;;;;;;;;5006639;28;20151;-76
2022/07/31 05:50:33;;;;;;;6.30;3.17;;;;;;;;;;5010445;28;20042;-76
2022/07/31 05:52:59;;;;;;;5.72;3.50;;;;;;;;;;5008462;28;20026;-76
2022/07/31 05:55:25;;;;;;;5.15;3.42;;;;;;;;;;5008450;28;20355;-77
2022/07/31 05:57:52;;;;;;;7.57;3.95;;;18.90;99.90;;;;;;5012306;28;20041;-77
2022/07/31 06:00:19;;;;;;;5.43;3.50;;;;;;;;;;5005086;28;20054;-75
2022/07/31 06:02:46;;;;;;;6.25;4.38;;;;;;;;;;5010238;28;20046;-76
2022/07/31 06:05:12;;;;;;;20.05;14.13;;;;;;;;;;5009755;28;20439;-76
2022/07/31 06:07:38;;;;;;;10.13;4.03;;;;;;;;;;5013107;28;20513;-76
2022/07/31 06:10:04;;;;;;;6.40;2.90;;;;;;;;;;5002139;28;20041;-77
2022/07/31 06:12:30;;;;;;;7.75;4.28;;;;;;;;;;5010732;28;20044;-76
2022/07/31 06:14:56;;;;;;;9.70;3.70;;;;;;;;;;5013160;28;20436;-76
2022/07/31 06:17:22;;;;;;;3.97;3.00;;;;;;;;;;5005368;28;20053;-78
2022/07/31 06:19:48;;;;;;;6.38;3.72;;;;;;;;;;5012902;28;20049;-78
2022/07/31 06:22:14;;;;;;;5.95;3.38;;;;;;;;;;5013203;28;20034;-76
2022/07/31 06:24:40;;;;;;;7.20;3.67;;;;;;;;;;5013144;28;20034;-77
2022/07/31 06:27:06;;;;;;;9.02;5.28;;;;;;;;;;5010822;28;20045;-76
2022/07/31 06:29:32;;;;;;;6.80;3.95;;;;;;;;;;5004675;28;20048;-76
2022/07/31 06:31:58;;;;;;;5.53;4.05;;;;;;;;;;5021547;28;20038;-77
2022/07/31 06:34:24;;;;;;;4.80;3.78;;;;;;;;;;5007677;28;20044;-77
2022/07/31 06:36:50;;;;;;;7.72;4.28;;;;;;;;;;5009591;28;20061;-81
2022/07/31 06:39:16;;;;;;;6.63;4.00;;;19.70;99.90;;;;;;5006106;28;20469;-77
2022/07/31 06:41:48;;;;;;;7.07;4.43;;;20.00;99.90;;;;;;5005550;28;20498;-77
2022/07/31 06:44:18;;;;;;;9.03;4.00;;;;;;;;;;5023297;28;20057;-77
2022/07/31 06:46:47;;;;;;;7.45;3.92;;;;;;;;;;4999970;28;20061;-78
2022/07/31 06:49:14;;;;;;;6.40;4.43;;;;;;;;;;5010256;28;20066;-74
2022/07/31 06:51:40;;;;;;;10.45;4.50;;;;;;;;;;5009605;28;20060;-74
2022/07/31 06:54:07;;;;;;;5.10;4.28;;;;;;;;;;5009259;28;20670;-74
2022/07/31 06:56:33;;;;;;;7.07;4.07;;;;;;;;;;5005176;28;20030;-75
2022/07/31 06:59:00;;;;;;;9.82;4.40;;;;;;;;;;5006167;28;20476;-77
2022/07/31 07:01:26;;;;;;;12.52;5.35;;;;;;;;;;5006423;28;20113;-76
2022/07/31 07:03:52;;;;;;;7.13;4.53;;;;;;;;;;5010373;28;20123;-77
2022/07/31 07:06:19;;;;;;;10.40;6.55;;;;;;;;;;5013005;28;20038;-76
2022/07/31 07:08:45;;;;;;;7.18;4.82;;;;;;;;;;5011827;28;20706;-81
2022/07/31 07:11:11;;;;;;;7.00;4.47;;;;;;;;;;5003683;28;20065;-76
2022/07/31 07:13:37;;;;;;;8.10;5.35;;;;;;;;;;5009671;28;20359;-76
2022/07/31 07:16:03;;;;;;;9.70;4.82;;;21.20;99.90;;;;;;5005855;28;20030;-76
2022/07/31 07:18:29;;;;;;;7.32;4.03;;;;;;;;;;5010101;28;20088;-77
2022/07/31 07:20:56;;;;;;;8.25;4.63;;;;;;;;;;5008342;28;20025;-76
2022/07/31 07:23:22;;;;;;;8.32;5.50;;;;;;;;;;5004934;28;20034;-76
2022/07/31 07:25:48;;;;;;;17.80;12.70;;;;;;;;;;5002540;28;20042;-77
2022/07/31 07:28:14;;;;;;;9.82;5.28;;;;;;;;;;5007369;28;20041;-75
2022/07/31 07:30:41;;;;;;;11.50;5.30;;;;;;;;;;5001919;28;20429;-74
2022/07/31 07:33:07;;;;;;;10.77;5.20;;;;;;;;;;4996561;28;20084;-74
2022/07/31 07:35:33;;;;;;;8.88;4.65;;;;;;;;;;5002490;28;20062;-74
2022/07/31 07:37:59;;;;;;;8.70;4.88;;;;;;;;;;5003415;28;20030;-74
2022/07/31 07:40:25;;;;;;;11.43;5.25;;;21.20;99.90;;;;;;4998750;28;20466;-73
2022/07/31 07:42:51;;;;;;;10.70;4.60;;;;;;;;;;5007481;28;20422;-74
2022/07/31 07:45:17;;;;;;;9.70;5.13;;;;;;;;;;5018174;28;20101;-74
2022/07/31 07:47:43;;;;;;;8.32;4.63;;;;;;;;;;5004890;28;20453;-73
2022/07/31 07:50:10;;;;;;;13.57;5.93;;;;;;;;;;5011406;28;20111;-74
2022/07/31 07:52:37;;;;;;;9.43;4.75;;;;;;;;;;5004448;28;20061;-74
2022/07/31 07:55:04;;;;;;;11.50;5.63;;;;;;;;;;5005613;28;20038;-74
2022/07/31 07:57:30;;;;;;;11.57;5.15;;;;;;;;;;5000849;28;20042;-74
2022/07/31 07:59:59;;;;;;;7.70;5.80;;;;;;;;;;5009715;28;20062;-75
2022/07/31 08:02:25;;;;;;;10.02;5.63;;;;;;;;;;5021401;28;20022;-74
2022/07/31 08:04:51;;;;;;;19.08;10.57;;;;;;;;;;5004560;28;20378;-74
2022/07/31 08:07:17;;;;;;;12.00;6.03;;;;;;;;;;5003221;28;20034;-74
2022/07/31 08:09:43;;;;;;;13.40;6.53;;;;;;;;;;5007295;28;20368;-75
2022/07/31 08:12:09;;;;;;;15.68;6.00;;;;;;;;;;5013020;28;20438;-76
2022/07/31 08:14:35;;;;;;;12.48;6.25;;;;;;;;;;5007562;28;20061;-76
2022/07/31 08:17:01;;;;;;;13.75;6.50;;;;;;;;;;5009612;28;20087;-77
2022/07/31 08:19:27;;;;;;;12.07;6.47;;;;;;;;;;5007969;28;20504;-76
2022/07/31 08:21:53;;;;;;;15.70;7.30;;;;;;;;;;5007646;28;20049;-77
2022/07/31 08:24:19;;;;;;;18.50;7.35;;;;;;;;;;5003174;28;20034;-76
2022/07/31 08:29:29;;;;;;;16.02;7.85;;;;;;;;;;5003807;28;20436;-74
2022/07/31 08:31:55;;;;;;;15.05;7.95;;;;;;;;;;5004073;28;20045;-75
2022/07/31 08:34:22;;;;;;;15.52;7.38;;;;;;;;;;5010101;28;20033;-74
2022/07/31 08:36:48;;;;;;;13.50;8.05;;;;;;;;;;5015182;28;20080;-74
2022/07/31 08:39:14;;;;;;;15.23;8.80;;;;;;;;;;5012101;28;20034;-74
2022/07/31 08:41:40;;;;;;;11.88;8.63;;;;;;;;;;5012888;28;20355;-74
2022/07/31 08:44:06;;;;;;;15.88;8.93;;;;;;;;;;5013923;28;20045;-74
2022/07/31 08:46:36;;;;;;;16.17;8.48;;;20.30;99.90;;;;;;5014383;28;20428;-75
2022/07/31 08:49:03;;;;;;;14.40;9.38;;;20.30;99.90;;;;;;5013285;28;20112;-75
2022/07/31 08:51:30;;;;;;;18.42;10.07;;;;;;;;;;5009054;28;20069;-73
2022/07/31 08:53:57;;;;;;;17.08;9.07;;;;;;;;;;5009908;28;20038;-74
2022/07/31 08:56:24;;;;;;;15.80;9.30;;;;;;;;;;5015259;28;20452;-74
2022/07/31 08:58:50;;;;;;;18.50;9.73;;;;;;;;;;5014654;28;20112;-75
2022/07/31 09:01:16;;;;;;;11.63;9.02;;;;;;;;;;5009083;28;20037;-77
2022/07/31 09:03:42;;;;;;;17.13;10.63;;;;;;;;;;5003856;28;20041;-74
2022/07/31 09:06:09;;;;;;;13.77;9.32;;;;;;;;;;5008839;28;20058;-74
2022/07/31 09:08:36;;;;;;;21.10;10.20;;;;;;;;;;5012254;28;20478;-74
2022/07/31 09:11:07;;;;;;;16.73;10.70;;;;;;;;;;5010969;28;20045;-76
2022/07/31 09:13:33;;;;;;;27.58;11.02;;;;;;;;;;5011152;28;20478;-74
2022/07/31 09:16:00;;;;;;;19.65;10.48;;;20.60;99.90;;;;;;5009627;28;20037;-75
2022/07/31 09:18:26;;;;;;;14.48;9.85;;;;;;;;;;5006065;28;20083;-74
2022/07/31 09:20:59;;;;;;;14.73;9.60;;;;;;;;;;5011433;28;20025;-76
2022/07/31 09:23:27;;;;;;;14.75;10.10;;;20.50;99.90;;;;;;5006452;28;20038;-74
2022/07/31 09:26:00;;;;;;;14.90;10.15;;;;;;;;;;5006352;28;20096;-75
2022/07/31 09:28:34;;;;;;;18.08;10.68;;;;;;;;;;5013320;28;20037;-74
2022/07/31 09:31:01;;;;;;;21.15;11.75;;;20.50;99.90;;;;;;5010005;28;20034;-74
2022/07/31 09:33:28;;;;;;;16.98;10.85;;;;;;;;;;5011041;28;20042;-75
2022/07/31 09:35:54;;;;;;;13.80;10.60;;;;;;;;;;5009912;28;20026;-75
2022/07/31 09:38:22;;;;;;;17.20;10.75;;;;;;;;;;5012366;28;20113;-75
2022/07/31 09:40:48;;;;;;;20.98;12.00;;;20.50;99.90;;;;;;5002475;28;20110;-75
2022/07/31 09:43:23;;;;;;;17.98;11.65;;;20.30;99.90;;;;;;5009007;28;20117;-77
2022/07/31 09:45:57;;;;;;;13.60;10.00;;;;;;;;;;5012915;28;20040;-75
2022/07/31 09:48:23;;;;;;;14.23;10.48;;;;;;;;;;5006953;28;20565;-75
2022/07/31 09:50:53;;;;;;;16.35;11.05;;;;;;;;;;5008764;28;20374;-74
2022/07/31 09:53:19;;;;;;;17.40;10.52;;;;;;;;;;5000002;28;20014;-73
2022/07/31 09:55:55;;;;;;;18.38;10.50;;;20.20;99.90;;;;;;5005835;28;20041;-75
2022/07/31 09:58:22;;;;;;;20.80;11.40;;;;;;;;;;5008230;28;20133;-75
2022/07/31 10:00:53;;;;;;;15.35;10.10;;;;;;;;;;5004615;28;20171;-76
2022/07/31 10:03:20;;;;;;;18.30;10.35;;;;;;;;;;5004163;28;20034;-75
2022/07/31 10:05:46;;;;;;;15.00;11.05;;;;;;;;;;5003707;28;20033;-75
2022/07/31 10:08:13;;;;;;;18.05;11.73;;;19.90;99.90;;;;;;5011075;28;20527;-76
2022/07/31 10:10:39;;;;;;;13.77;10.23;;;;;;;;;;5001324;28;20403;-75
2022/07/31 10:13:07;;;;;;;17.20;10.77;;;;;;;;;;5011936;28;20034;-77
2022/07/31 10:15:35;;;;;;;13.52;9.95;;;;;;;;;;5005774;28;20368;-76
2022/07/31 10:18:02;;;;;;;14.05;11.00;;;;;;;;;;5006881;28;20040;-74
2022/07/31 10:20:28;;;;;;;14.45;10.68;;;;;;;;;;5007622;28;20112;-76
2022/07/31 10:23:15;;;;;;;15.35;10.80;;;20.30;99.90;;;;;;5008427;28;20520;-75
2022/07/31 10:25:47;;;;;;;15.63;10.77;;;;;;;;;;5009420;28;20150;-75
2022/07/31 10:28:13;;;;;;;15.52;12.38;;;;;;;;;;5005774;28;20029;-79
2022/07/31 10:30:39;;;;;;;15.27;11.40;;;;;;;;;;5008438;28;20037;-74
2022/07/31 10:33:05;;;;;;;18.65;12.52;;;;;;;;;;4994452;28;20046;-75
2022/07/31 10:35:31;;;;;;;12.88;11.07;;;;;;;;;;5005203;28;20053;-75
2022/07/31 10:38:02;;;;;;;15.63;11.85;;;;;;;;;;5007997;28;20156;-76
2022/07/31 10:40:44;;;;;;;17.63;11.85;;;;;;;;;;5004779;28;20378;-75
2022/07/31 10:43:16;;;;;;;14.43;12.23;;;;;;;;;;5006131;28;20041;-76
2022/07/31 10:46:01;;;;;;;16.00;12.70;;;;;;;;;;5004307;28;20499;-74
2022/07/31 10:48:28;;;;;;;21.17;14.90;;;;;;;;;;5007180;28;20057;-74
2022/07/31 10:51:21;;;;;;;19.23;13.70;;;;;;;;;;5008900;28;20038;-73
2022/07/31 10:53:54;;;;;;;19.80;14.68;;;;;;;;;;5007669;28;20188;-74
2022/07/31 10:56:20;;;;;;;20.55;13.77;;;20.20;99.90;;;;;;5010801;28;20111;-74
2022/07/31 10:58:50;;;;;;;20.58;14.02;;;;;;;;;;5011479;28;20683;-73
2022/07/31 11:01:16;;;;;;;19.40;14.38;;;;;;;;;;5001496;28;20029;-73
2022/07/31 11:03:45;;;;;;;20.45;14.52;;;;;;;;;;5008801;28;20034;-73
2022/07/31 11:06:11;;;;;;;21.05;15.98;;;;;;;;;;5012618;28;20136;-74
2022/07/31 11:08:45;;;;;;;23.83;15.35;;;;;;;;;;5005811;28;20257;-77
2022/07/31 11:11:11;;;;;;;21.95;16.33;;;;;;;;;;5010285;28;20125;-75
2022/07/31 11:13:50;;;;;;;23.70;16.23;;;;;;;;;;5007848;28;20038;-74
2022/07/31 11:16:16;;;;;;;24.35;16.45;;;;;;;;;;5010018;28;20033;-74
2022/07/31 11:18:44;;;;;;;19.50;14.98;;;;;;;;;;5004416;28;20087;-74
2022/07/31 11:21:11;;;;;;;23.27;16.52;;;;;;;;;;5010316;28;20017;-77
2022/07/31 11:23:37;;;;;;;22.50;15.77;;;;;;;;;;5010505;28;20041;-73
2022/07/31 11:26:05;;;;;;;19.80;15.50;;;;;;;;;;5010946;28;20057;-76
2022/07/31 11:28:31;;;;;;;23.45;15.68;;;;;;;;;;5010703;28;20363;-73
2022/07/31 11:30:59;;;;;;;20.60;15.48;;;;;;;;;;5010349;28;20034;-74
2022/07/31 11:33:29;;;;;;;23.42;15.40;;;;;;;;;;5006650;28;20038;-74
2022/07/31 11:35:56;;;;;;;21.90;15.90;;;;;;;;;;5009449;28;20489;-80
2022/07/31 11:38:28;;;;;;;21.85;15.52;;;19.70;99.90;;;;;;5003455;28;20034;-74
2022/07/31 11:40:54;;;;;;;17.88;13.38;;;;;;;;;;5009183;28;20042;-74
2022/07/31 11:43:21;;;;;;;17.15;12.95;;;;;;;;;;5010257;28;20045;-75
2022/07/31 11:45:50;;;;;;;13.90;11.38;;;19.70;99.90;;;;;;5004085;28;20042;-75
2022/07/31 11:48:16;;;;;;;15.77;11.80;;;;;;;;;;5007279;28;20040;-74
2022/07/31 11:50:43;;;;;;;16.40;13.25;;;;;;;;;;5005271;28;20092;-74
2022/07/31 11:53:09;;;;;;;15.23;12.77;;;;;;;;;;5010066;28;20534;-76
2022/07/31 11:55:53;;;;;;;17.13;13.35;;;19.80;99.90;;;;;;5004893;28;20026;-74
2022/07/31 11:58:20;;;;;;;17.40;12.70;;;;;;;;;;5009395;28;20116;-72
2022/07/31 12:00:47;;;;;;;18.73;13.95;;;;;;;;;;5005559;28;20049;-73
2022/07/31 12:03:13;;;;;;;19.73;13.88;;;;;;;;;;4993024;28;20053;-74
2022/07/31 12:05:44;;;;;;;20.98;14.70;;;;;;;;;;5011248;28;20084;-73
2022/07/31 12:08:10;;;;;;;23.42;15.98;;;;;;;;;;5002014;28;20038;-73
2022/07/31 12:10:36;;;;;;;22.33;15.40;;;;;;;;;;5009484;28;20482;-71
2022/07/31 12:13:02;;;;;;;24.40;16.65;;;19.70;99.90;;;;;;5003929;28;20089;-73
2022/07/31 12:15:28;;;;;;;18.23;14.70;;;;;;;;;;5011164;28;20030;-74
2022/07/31 12:18:01;;;;;;;18.98;13.48;;;;;;;;;;5002160;28;20076;-73
2022/07/31 12:20:29;;;;;;;15.20;11.05;;;;;;;;;;5011332;28;20034;-73
2022/07/31 12:22:59;;;;;;;9.77;8.57;;;;;;;;;;5009366;28;20084;-72
2022/07/31 12:25:25;;;;;;;12.45;9.93;;;;;;;;;;4998773;28;20388;-73
2022/07/31 12:27:54;;;;;;;12.02;9.05;;;;;;;;;;5010266;28;20054;-74
2022/07/31 12:30:23;;;;;;;11.70;8.82;;;;;;;;;;5006826;28;20034;-73
2022/07/31 12:32:49;;;;;;;10.45;7.60;;;;;;;;;;5001210;28;20048;-74
2022/07/31 12:35:15;;;;;;;11.88;7.88;;;;;;;;;;5004077;28;20034;-75
2022/07/31 12:37:42;;;;;;;20.23;12.90;;;;;;;;;;5008930;28;20065;-72
2022/07/31 12:40:08;;;;;;;9.88;8.10;;;;;;;;;;5006586;28;20037;-76
2022/07/31 12:42:36;;;;;;;11.50;8.07;;;19.90;99.90;;;;;;5006591;28;20504;-73
2022/07/31 12:45:04;;;;;;;10.32;7.65;;;;;;;;;;5007129;28;20053;-73
2022/07/31 12:47:32;;;;;;;14.23;8.30;;;20.00;99.90;;;;;;5010217;28;20041;-73
2022/07/31 12:49:59;;;;;;;12.50;8.07;;;;;;;;;;5008435;28;20038;-74
2022/07/31 12:52:28;;;;;;;11.35;7.13;;;20.30;99.90;;;;;;4997367;28;20089;-76
2022/07/31 12:54:54;;;;;;;10.75;6.88;;;;;;;;;;5004918;28;20060;-72
2022/07/31 12:57:20;;;;;;;11.38;6.95;;;;;;;;;;5010534;28;20152;-71
2022/07/31 12:59:46;;;;;;;9.55;6.43;;;;;;;;;;4996343;28;20165;-73
2022/07/31 13:02:12;;;;;;;15.38;6.97;;;;;;;;;;4984628;28;20176;-75
2022/07/31 13:04:38;;;;;;;10.38;6.90;;;;;;;;;;4991790;28;20069;-74
2022/07/31 13:07:04;;;;;;;5.13;3.78;;;;;;;;;;4990002;28;20121;-74
2022/07/31 13:09:30;;;;;;;8.25;4.00;;;;;;;;;;4983234;28;20134;-76
2022/07/31 13:11:56;;;;;;;8.73;4.25;;;;;;;;;;4989182;28;20462;-73
2022/07/31 13:14:23;;;;;;;8.52;3.80;;;;;;;;;;4988912;28;20487;-73
2022/07/31 13:16:50;;;;;;;9.75;4.80;;;;;;;;;;4997034;28;20137;-76
2022/07/31 13:19:16;;;;;;;8.05;4.30;;;;;;;;;;5011540;28;20030;-77
2022/07/31 13:21:43;;;;;;;9.15;5.60;;;;;;;;;;5013845;28;20037;-76
2022/07/31 13:24:09;;;;;;;9.68;6.32;;;;;;;;;;5003491;28;20034;-71
2022/07/31 13:26:35;;;;;;;12.23;5.75;;;;;;;;;;5007782;28;20034;-73
2022/07/31 13:29:01;;;;;;;7.72;5.68;;;20.60;99.90;;;;;;5005143;28;20375;-71
2022/07/31 13:31:28;;;;;;;10.25;5.57;;;;;;;;;;5012235;28;20034;-72
2022/07/31 13:33:54;;;;;;;10.60;5.50;;;;;;;;;;5004427;28;20457;-74
2022/07/31 13:36:20;;;;;;;9.20;5.30;;;;;;;;;;5006918;28;20037;-74
2022/07/31 13:38:46;;;;;;;8.63;6.15;;;;;;;;;;5008835;28;20085;-73
2022/07/31 13:41:29;;;;;;;16.80;6.47;;;;;;;;;;5014257;28;20069;-73
2022/07/31 13:43:56;;;;;;;9.25;6.10;;;;;;;;;;5005170;28;20034;-73
2022/07/31 13:46:22;;;;;;;9.55;6.80;;;;;;;;;;5006785;28;20076;-73
2022/07/31 13:48:50;;;;;;;11.40;6.25;;;20.20;99.90;;;;;;5010494;28;20034;-74
2022/07/31 13:51:16;;;;;;;10.00;5.20;;;;;;;;;;5013537;28;20041;-75
2022/07/31 13:53:42;;;;;;;10.13;5.85;;;;;;;;;;5002791;28;20038;-74
2022/07/31 13:56:09;;;;;;;6.45;4.53;;;;;;;;;;5010420;28;20133;-78
2022/07/31 13:58:35;;;;;;;7.45;3.70;;;;;;;;;;5008345;28;20026;-73
2022/07/31 14:01:02;;;;;;;5.88;4.13;;;;;;;;;;5008305;28;20061;-72
2022/07/31 14:03:28;;;;;;;9.43;4.63;;;;;;;;;;5004898;28;20157;-72
2022/07/31 14:05:54;;;;;;;6.80;5.30;;;;;;;;;;5011398;28;20029;-72
2022/07/31 14:08:20;;;;;;;7.22;4.75;;;;;;;;;;5010126;28;20394;-73
2022/07/31 14:10:46;;;;;;;8.40;4.88;;;;;;;;;;5004095;28;20069;-72
2022/07/31 14:13:12;;;;;;;8.90;5.50;;;;;;;;;;5001518;28;20482;-73
2022/07/31 14:15:39;;;;;;;8.57;4.63;;;;;;;;;;5004798;28;20033;-73
2022/07/31 14:18:05;;;;;;;7.30;4.35;;;;;;;;;;5003191;28;20065;-76
2022/07/31 14:20:32;;;;;;;5.40;3.88;;;;;;;;;;5008192;28;20073;-72
2022/07/31 14:22:58;;;;;;;7.90;3.80;;;;;;;;;;5006406;28;20038;-74
2022/07/31 14:25:24;;;;;;;8.80;5.07;;;;;;;;;;5003824;28;20034;-73